sensor_id;sensor_type;location;lat;lon;timestamp;P1;durP1;ratioP1;P2;durP2;ratioP2
27428;SDS011;14881;48.092;11.574;2023-06-14T00:01:39;6.00;;;5.40;;
27428;SDS011;14881;48.092;11.574;2023-06-14T00:04:06;6.70;;;5.90;;
27428;SDS011;14881;48.092;11.574;2023-06-14T00:06:34;7.60;;;5.43;;
27428;SDS011;14881;48.092;11.574;2023-06-14T00:09:00;7.22;;;5.70;;
27428;SDS011;14881;48.092;11.574;2023-06-14T00:11:27;7.20;;;5.40;;
27428;SDS011;14881;48.092;11.574;2023-06-14T00:13:53;6.20;;;5.57;;
27428;SDS011;14881;48.092;11.574;2023-06-14T00:16:19;8.65;;;5.53;;
27428;SDS011;14881;48.092;11.574;2023-06-14T00:18:46;6.25;;;5.65;;
27428;SDS011;14881;48.092;11.574;2023-06-14T00:21:13;7.30;;;5.40;;
27428;SDS011;14881;48.092;11.574;2023-06-14T00:23:40;7.43;;;6.07;;
27428;SDS011;14881;48.092;11.574;2023-06-14T00:26:07;7.03;;;5.68;;
27428;SDS011;14881;48.092;11.574;2023-06-14T00:28:33;6.03;;;5.38;;
27428;SDS011;14881;48.092;11.574;2023-06-14T00:30:59;7.45;;;5.28;;
27428;SDS011;14881;48.092;11.574;2023-06-14T00:33:26;7.25;;;5.85;;
27428;SDS011;14881;48.092;11.574;2023-06-14T00:35:52;7.20;;;5.72;;
27428;SDS011;14881;48.092;11.574;2023-06-14T00:38:20;9.02;;;5.78;;
27428;SDS011;14881;48.092;11.574;2023-06-14T00:40:46;6.78;;;5.47;;
27428;SDS011;14881;48.092;11.574;2023-06-14T00:43:13;6.55;;;5.85;;
27428;SDS011;14881;48.092;11.574;2023-06-14T00:45:39;7.47;;;5.55;;
27428;SDS011;14881;48.092;11.574;2023-06-14T00:48:05;8.52;;;6.22;;
27428;SDS011;14881;48.092;11.574;2023-06-14T00:50:33;8.35;;;5.90;;
27428;SDS011;14881;48.092;11.574;2023-06-14T00:53:00;7.38;;;5.50;;
27428;SDS011;14881;48.092;11.574;2023-06-14T00:55:27;7.68;;;5.82;;
27428;SDS011;14881;48.092;11.574;2023-06-14T00:57:54;6.75;;;5.57;;
27428;SDS011;14881;48.092;11.574;2023-06-14T01:00:21;6.55;;;5.50;;
27428;SDS011;14881;48.092;11.574;2023-06-14T01:02:47;9.55;;;5.57;;
27428;SDS011;14881;48.092;11.574;2023-06-14T01:05:15;9.35;;;5.60;;
27428;SDS011;14881;48.092;11.574;2023-06-14T01:07:46;7.03;;;5.40;;
27428;SDS011;14881;48.092;11.574;2023-06-14T01:10:23;7.80;;;6.30;;
27428;SDS011;14881;48.092;11.574;2023-06-14T01:13:03;8.05;;;5.80;;
27428;SDS011;14881;48.092;11.574;2023-06-14T01:15:33;9.02;;;5.97;;
27428;SDS011;14881;48.092;11.574;2023-06-14T01:18:00;6.43;;;5.72;;
27428;SDS011;14881;48.092;11.574;2023-06-14T01:20:28;7.88;;;5.97;;
27428;SDS011;14881;48.092;11.574;2023-06-14T01:22:57;7.72;;;6.22;;
27428;SDS011;14881;48.092;11.574;2023-06-14T01:25:24;6.75;;;5.28;;
27428;SDS011;14881;48.092;11.574;2023-06-14T01:27:51;9.20;;;6.35;;
27428;SDS011;14881;48.092;11.574;2023-06-14T01:30:19;7.55;;;5.63;;
27428;SDS011;14881;48.092;11.574;2023-06-14T01:32:47;9.35;;;6.07;;
27428;SDS011;14881;48.092;11.574;2023-06-14T01:35:16;8.23;;;6.30;;
27428;SDS011;14881;48.092;11.574;2023-06-14T01:37:43;6.90;;;5.78;;
27428;SDS011;14881;48.092;11.574;2023-06-14T01:40:10;8.52;;;6.32;;
27428;SDS011;14881;48.092;11.574;2023-06-14T01:42:39;6.95;;;5.85;;
27428;SDS011;14881;48.092;11.574;2023-06-14T01:45:09;7.22;;;5.80;;
27428;SDS011;14881;48.092;11.574;2023-06-14T01:47:59;6.53;;;5.85;;
27428;SDS011;14881;48.092;11.574;2023-06-14T01:50:27;7.72;;;6.07;;
27428;SDS011;14881;48.092;11.574;2023-06-14T01:52:55;6.20;;;5.38;;
27428;SDS011;14881;48.092;11.574;2023-06-14T01:55:22;6.47;;;5.68;;
27428;SDS011;14881;48.092;11.574;2023-06-14T01:57:50;8.02;;;5.80;;
27428;SDS011;14881;48.092;11.574;2023-06-14T02:00:16;11.02;;;5.95;;
27428;SDS011;14881;48.092;11.574;2023-06-14T02:02:44;11.43;;;5.93;;
27428;SDS011;14881;48.092;11.574;2023-06-14T02:05:11;7.03;;;5.75;;
27428;SDS011;14881;48.092;11.574;2023-06-14T02:07:38;8.50;;;5.68;;
27428;SDS011;14881;48.092;11.574;2023-06-14T02:10:04;9.98;;;6.07;;
27428;SDS011;14881;48.092;11.574;2023-06-14T02:12:32;7.90;;;6.10;;
27428;SDS011;14881;48.092;11.574;2023-06-14T02:14:58;8.45;;;6.20;;
27428;SDS011;14881;48.092;11.574;2023-06-14T02:17:25;7.63;;;6.10;;
27428;SDS011;14881;48.092;11.574;2023-06-14T02:19:51;12.60;;;6.18;;
27428;SDS011;14881;48.092;11.574;2023-06-14T02:22:18;7.53;;;5.78;;
27428;SDS011;14881;48.092;11.574;2023-06-14T02:24:46;7.03;;;5.45;;
27428;SDS011;14881;48.092;11.574;2023-06-14T02:27:12;7.53;;;6.03;;
27428;SDS011;14881;48.092;11.574;2023-06-14T02:29:42;6.55;;;5.72;;
27428;SDS011;14881;48.092;11.574;2023-06-14T02:32:09;9.45;;;6.05;;
27428;SDS011;14881;48.092;11.574;2023-06-14T02:34:35;7.50;;;6.20;;
27428;SDS011;14881;48.092;11.574;2023-06-14T02:37:02;7.55;;;5.78;;
27428;SDS011;14881;48.092;11.574;2023-06-14T02:39:28;9.45;;;5.57;;
27428;SDS011;14881;48.092;11.574;2023-06-14T02:41:55;6.50;;;5.78;;
27428;SDS011;14881;48.092;11.574;2023-06-14T02:44:23;6.78;;;5.47;;
27428;SDS011;14881;48.092;11.574;2023-06-14T02:46:52;7.90;;;6.20;;
27428;SDS011;14881;48.092;11.574;2023-06-14T02:49:18;6.82;;;5.80;;
27428;SDS011;14881;48.092;11.574;2023-06-14T02:51:45;7.85;;;5.88;;
27428;SDS011;14881;48.092;11.574;2023-06-14T02:54:11;8.35;;;6.18;;
27428;SDS011;14881;48.092;11.574;2023-06-14T02:56:37;6.88;;;6.07;;
27428;SDS011;14881;48.092;11.574;2023-06-14T02:59:04;12.18;;;6.25;;
27428;SDS011;14881;48.092;11.574;2023-06-14T03:01:30;9.45;;;6.57;;
27428;SDS011;14881;48.092;11.574;2023-06-14T03:04:00;9.35;;;6.65;;
27428;SDS011;14881;48.092;11.574;2023-06-14T03:06:27;8.35;;;6.07;;
27428;SDS011;14881;48.092;11.574;2023-06-14T03:08:55;10.77;;;6.63;;
27428;SDS011;14881;48.092;11.574;2023-06-14T03:11:25;10.65;;;6.70;;
27428;SDS011;14881;48.092;11.574;2023-06-14T03:13:51;8.60;;;6.35;;
27428;SDS011;14881;48.092;11.574;2023-06-14T03:16:18;8.38;;;6.07;;
27428;SDS011;14881;48.092;11.574;2023-06-14T03:18:46;9.25;;;6.38;;
27428;SDS011;14881;48.092;11.574;2023-06-14T03:21:15;7.85;;;6.55;;
27428;SDS011;14881;48.092;11.574;2023-06-14T03:23:41;9.52;;;6.55;;
27428;SDS011;14881;48.092;11.574;2023-06-14T03:26:08;9.82;;;6.50;;
27428;SDS011;14881;48.092;11.574;2023-06-14T03:28:34;8.30;;;5.78;;
27428;SDS011;14881;48.092;11.574;2023-06-14T03:31:00;9.40;;;6.85;;
27428;SDS011;14881;48.092;11.574;2023-06-14T03:33:27;9.63;;;6.10;;
27428;SDS011;14881;48.092;11.574;2023-06-14T03:35:53;6.38;;;5.78;;
27428;SDS011;14881;48.092;11.574;2023-06-14T03:38:22;8.07;;;6.28;;
27428;SDS011;14881;48.092;11.574;2023-06-14T03:40:48;8.40;;;6.43;;
27428;SDS011;14881;48.092;11.574;2023-06-14T03:43:15;9.98;;;6.20;;
27428;SDS011;14881;48.092;11.574;2023-06-14T03:45:41;10.00;;;5.97;;
27428;SDS011;14881;48.092;11.574;2023-06-14T03:48:08;9.23;;;6.45;;
27428;SDS011;14881;48.092;11.574;2023-06-14T03:50:35;8.00;;;6.00;;
27428;SDS011;14881;48.092;11.574;2023-06-14T03:53:03;7.00;;;6.30;;
27428;SDS011;14881;48.092;11.574;2023-06-14T03:55:30;8.25;;;6.95;;
27428;SDS011;14881;48.092;11.574;2023-06-14T03:58:00;8.80;;;6.32;;
27428;SDS011;14881;48.092;11.574;2023-06-14T04:00:26;6.55;;;5.60;;
27428;SDS011;14881;48.092;11.574;2023-06-14T04:02:53;7.75;;;6.03;;
27428;SDS011;14881;48.092;11.574;2023-06-14T04:05:22;10.52;;;6.40;;
27428;SDS011;14881;48.092;11.574;2023-06-14T04:07:52;10.50;;;6.47;;
27428;SDS011;14881;48.092;11.574;2023-06-14T04:10:21;6.75;;;6.07;;
27428;SDS011;14881;48.092;11.574;2023-06-14T04:12:48;8.32;;;6.57;;
27428;SDS011;14881;48.092;11.574;2023-06-14T04:15:14;7.40;;;6.03;;
27428;SDS011;14881;48.092;11.574;2023-06-14T04:17:47;10.55;;;5.75;;
27428;SDS011;14881;48.092;11.574;2023-06-14T04:20:13;7.90;;;6.47;;
27428;SDS011;14881;48.092;11.574;2023-06-14T04:22:40;8.68;;;6.22;;
27428;SDS011;14881;48.092;11.574;2023-06-14T04:25:06;7.63;;;6.18;;
27428;SDS011;14881;48.092;11.574;2023-06-14T04:27:34;7.25;;;5.93;;
27428;SDS011;14881;48.092;11.574;2023-06-14T04:30:02;8.45;;;6.35;;
27428;SDS011;14881;48.092;11.574;2023-06-14T04:32:29;7.88;;;5.32;;
27428;SDS011;14881;48.092;11.574;2023-06-14T04:35:05;9.07;;;6.18;;
27428;SDS011;14881;48.092;11.574;2023-06-14T04:37:32;8.20;;;6.20;;
27428;SDS011;14881;48.092;11.574;2023-06-14T04:39:58;9.30;;;6.05;;
27428;SDS011;14881;48.092;11.574;2023-06-14T04:42:25;7.18;;;5.97;;
27428;SDS011;14881;48.092;11.574;2023-06-14T04:44:56;7.95;;;6.15;;
27428;SDS011;14881;48.092;11.574;2023-06-14T04:47:24;7.82;;;6.45;;
27428;SDS011;14881;48.092;11.574;2023-06-14T04:49:55;10.02;;;5.93;;
27428;SDS011;14881;48.092;11.574;2023-06-14T04:52:23;6.93;;;5.97;;
27428;SDS011;14881;48.092;11.574;2023-06-14T04:54:52;6.85;;;5.78;;
27428;SDS011;14881;48.092;11.574;2023-06-14T04:57:19;7.55;;;6.00;;
27428;SDS011;14881;48.092;11.574;2023-06-14T04:59:47;6.80;;;5.60;;
27428;SDS011;14881;48.092;11.574;2023-06-14T05:02:14;7.05;;;6.28;;
27428;SDS011;14881;48.092;11.574;2023-06-14T05:04:41;9.00;;;6.38;;
27428;SDS011;14881;48.092;11.574;2023-06-14T05:07:07;8.75;;;6.38;;
27428;SDS011;14881;48.092;11.574;2023-06-14T05:09:34;7.60;;;6.47;;
27428;SDS011;14881;48.092;11.574;2023-06-14T05:12:01;7.93;;;5.45;;
27428;SDS011;14881;48.092;11.574;2023-06-14T05:14:27;8.95;;;6.47;;
27428;SDS011;14881;48.092;11.574;2023-06-14T05:16:54;7.22;;;5.68;;
27428;SDS011;14881;48.092;11.574;2023-06-14T05:19:20;10.57;;;5.60;;
27428;SDS011;14881;48.092;11.574;2023-06-14T05:21:47;8.02;;;5.72;;
27428;SDS011;14881;48.092;11.574;2023-06-14T05:24:14;11.73;;;7.15;;
27428;SDS011;14881;48.092;11.574;2023-06-14T05:26:40;10.25;;;6.07;;
27428;SDS011;14881;48.092;11.574;2023-06-14T05:29:07;9.48;;;6.00;;
27428;SDS011;14881;48.092;11.574;2023-06-14T05:31:33;9.13;;;6.40;;
27428;SDS011;14881;48.092;11.574;2023-06-14T05:34:00;7.68;;;5.70;;
27428;SDS011;14881;48.092;11.574;2023-06-14T05:36:26;7.10;;;6.18;;
27428;SDS011;14881;48.092;11.574;2023-06-14T05:38:54;8.45;;;5.85;;
27428;SDS011;14881;48.092;11.574;2023-06-14T05:41:24;9.38;;;5.60;;
27428;SDS011;14881;48.092;11.574;2023-06-14T05:43:51;7.97;;;5.72;;
27428;SDS011;14881;48.092;11.574;2023-06-14T05:46:18;7.03;;;6.22;;
27428;SDS011;14881;48.092;11.574;2023-06-14T05:48:47;7.32;;;5.93;;
27428;SDS011;14881;48.092;11.574;2023-06-14T05:51:14;8.13;;;6.43;;
27428;SDS011;14881;48.092;11.574;2023-06-14T05:53:44;9.70;;;6.30;;
27428;SDS011;14881;48.092;11.574;2023-06-14T05:56:11;9.13;;;6.47;;
27428;SDS011;14881;48.092;11.574;2023-06-14T05:58:38;7.28;;;5.95;;
27428;SDS011;14881;48.092;11.574;2023-06-14T06:01:04;7.90;;;5.68;;
27428;SDS011;14881;48.092;11.574;2023-06-14T06:03:30;6.50;;;5.38;;
27428;SDS011;14881;48.092;11.574;2023-06-14T06:05:58;6.82;;;5.25;;
27428;SDS011;14881;48.092;11.574;2023-06-14T06:08:24;8.63;;;5.32;;
27428;SDS011;14881;48.092;11.574;2023-06-14T06:10:52;9.57;;;6.30;;
27428;SDS011;14881;48.092;11.574;2023-06-14T06:13:19;10.68;;;5.97;;
27428;SDS011;14881;48.092;11.574;2023-06-14T06:15:45;7.93;;;5.57;;
27428;SDS011;14881;48.092;11.574;2023-06-14T06:18:12;6.32;;;5.45;;
27428;SDS011;14881;48.092;11.574;2023-06-14T06:20:38;7.95;;;6.22;;
27428;SDS011;14881;48.092;11.574;2023-06-14T06:23:05;7.55;;;5.72;;
27428;SDS011;14881;48.092;11.574;2023-06-14T06:25:31;7.47;;;5.53;;
27428;SDS011;14881;48.092;11.574;2023-06-14T06:27:57;8.35;;;5.78;;
27428;SDS011;14881;48.092;11.574;2023-06-14T06:30:24;8.93;;;6.10;;
27428;SDS011;14881;48.092;11.574;2023-06-14T06:32:51;9.68;;;5.38;;
27428;SDS011;14881;48.092;11.574;2023-06-14T06:35:18;7.38;;;5.32;;
27428;SDS011;14881;48.092;11.574;2023-06-14T06:37:45;7.55;;;5.32;;
27428;SDS011;14881;48.092;11.574;2023-06-14T06:40:11;7.68;;;5.28;;
27428;SDS011;14881;48.092;11.574;2023-06-14T06:42:38;7.70;;;4.68;;
27428;SDS011;14881;48.092;11.574;2023-06-14T06:45:04;6.53;;;4.90;;
27428;SDS011;14881;48.092;11.574;2023-06-14T06:47:32;10.63;;;5.28;;
27428;SDS011;14881;48.092;11.574;2023-06-14T06:49:59;9.60;;;5.30;;
27428;SDS011;14881;48.092;11.574;2023-06-14T06:52:25;8.45;;;4.97;;
27428;SDS011;14881;48.092;11.574;2023-06-14T06:54:51;9.32;;;4.50;;
27428;SDS011;14881;48.092;11.574;2023-06-14T06:57:20;5.93;;;5.03;;
27428;SDS011;14881;48.092;11.574;2023-06-14T06:59:48;9.00;;;5.05;;
27428;SDS011;14881;48.092;11.574;2023-06-14T07:02:14;8.18;;;4.72;;
27428;SDS011;14881;48.092;11.574;2023-06-14T07:04:41;6.45;;;5.28;;
27428;SDS011;14881;48.092;11.574;2023-06-14T07:07:08;6.57;;;5.18;;
27428;SDS011;14881;48.092;11.574;2023-06-14T07:09:35;5.63;;;4.68;;
27428;SDS011;14881;48.092;11.574;2023-06-14T07:12:03;7.90;;;4.65;;
27428;SDS011;14881;48.092;11.574;2023-06-14T07:14:30;9.35;;;4.93;;
27428;SDS011;14881;48.092;11.574;2023-06-14T07:16:57;8.35;;;5.07;;
27428;SDS011;14881;48.092;11.574;2023-06-14T07:19:23;9.07;;;4.80;;
27428;SDS011;14881;48.092;11.574;2023-06-14T07:21:50;8.10;;;5.22;;
27428;SDS011;14881;48.092;11.574;2023-06-14T07:24:16;7.32;;;4.88;;
27428;SDS011;14881;48.092;11.574;2023-06-14T07:26:43;8.10;;;5.03;;
27428;SDS011;14881;48.092;11.574;2023-06-14T07:29:09;5.82;;;4.35;;
27428;SDS011;14881;48.092;11.574;2023-06-14T07:31:36;7.38;;;4.82;;
27428;SDS011;14881;48.092;11.574;2023-06-14T07:34:02;7.97;;;4.90;;
27428;SDS011;14881;48.092;11.574;2023-06-14T07:36:29;5.07;;;4.40;;
27428;SDS011;14881;48.092;11.574;2023-06-14T07:38:56;7.97;;;4.82;;
27428;SDS011;14881;48.092;11.574;2023-06-14T07:41:22;5.68;;;4.20;;
27428;SDS011;14881;48.092;11.574;2023-06-14T07:43:49;6.45;;;4.72;;
27428;SDS011;14881;48.092;11.574;2023-06-14T07:46:16;7.55;;;4.60;;
27428;SDS011;14881;48.092;11.574;2023-06-14T07:48:42;7.30;;;4.28;;
27428;SDS011;14881;48.092;11.574;2023-06-14T07:51:09;6.80;;;4.35;;
27428;SDS011;14881;48.092;11.574;2023-06-14T07:53:35;8.38;;;4.20;;
27428;SDS011;14881;48.092;11.574;2023-06-14T07:56:03;7.22;;;4.55;;
27428;SDS011;14881;48.092;11.574;2023-06-14T07:58:31;6.72;;;4.93;;
27428;SDS011;14881;48.092;11.574;2023-06-14T08:00:58;7.30;;;4.53;;
27428;SDS011;14881;48.092;11.574;2023-06-14T08:03:25;6.30;;;4.20;;
27428;SDS011;14881;48.092;11.574;2023-06-14T08:05:52;7.28;;;4.63;;
27428;SDS011;14881;48.092;11.574;2023-06-14T08:08:18;6.43;;;4.05;;
27428;SDS011;14881;48.092;11.574;2023-06-14T08:10:45;6.65;;;4.10;;
27428;SDS011;14881;48.092;11.574;2023-06-14T08:13:12;5.53;;;3.58;;
27428;SDS011;14881;48.092;11.574;2023-06-14T08:15:39;7.20;;;4.07;;
27428;SDS011;14881;48.092;11.574;2023-06-14T08:18:05;7.57;;;3.92;;
27428;SDS011;14881;48.092;11.574;2023-06-14T08:20:31;5.38;;;4.10;;
27428;SDS011;14881;48.092;11.574;2023-06-14T08:22:58;6.10;;;3.80;;
27428;SDS011;14881;48.092;11.574;2023-06-14T08:25:27;6.93;;;3.75;;
27428;SDS011;14881;48.092;11.574;2023-06-14T08:27:58;4.18;;;3.67;;
27428;SDS011;14881;48.092;11.574;2023-06-14T08:30:26;6.15;;;3.80;;
27428;SDS011;14881;48.092;11.574;2023-06-14T08:32:58;4.68;;;3.47;;
27428;SDS011;14881;48.092;11.574;2023-06-14T08:35:42;5.25;;;3.47;;
27428;SDS011;14881;48.092;11.574;2023-06-14T08:38:08;9.38;;;3.42;;
27428;SDS011;14881;48.092;11.574;2023-06-14T08:40:37;7.68;;;3.85;;
27428;SDS011;14881;48.092;11.574;2023-06-14T08:43:04;7.93;;;3.60;;
27428;SDS011;14881;48.092;11.574;2023-06-14T08:45:34;5.32;;;3.30;;
27428;SDS011;14881;48.092;11.574;2023-06-14T08:48:00;3.55;;;3.25;;
27428;SDS011;14881;48.092;11.574;2023-06-14T08:50:28;4.07;;;3.50;;
27428;SDS011;14881;48.092;11.574;2023-06-14T08:52:58;5.43;;;3.45;;
27428;SDS011;14881;48.092;11.574;2023-06-14T08:55:28;8.00;;;3.70;;
27428;SDS011;14881;48.092;11.574;2023-06-14T08:57:59;5.53;;;3.30;;
27428;SDS011;14881;48.092;11.574;2023-06-14T09:00:27;5.60;;;3.58;;
27428;SDS011;14881;48.092;11.574;2023-06-14T09:02:54;5.57;;;3.60;;
27428;SDS011;14881;48.092;11.574;2023-06-14T09:05:23;6.60;;;3.78;;
27428;SDS011;14881;48.092;11.574;2023-06-14T09:07:50;5.75;;;4.07;;
27428;SDS011;14881;48.092;11.574;2023-06-14T09:10:16;6.90;;;3.72;;
27428;SDS011;14881;48.092;11.574;2023-06-14T09:12:43;4.82;;;3.50;;
27428;SDS011;14881;48.092;11.574;2023-06-14T09:15:10;7.20;;;4.20;;
27428;SDS011;14881;48.092;11.574;2023-06-14T09:17:36;6.22;;;3.72;;
27428;SDS011;14881;48.092;11.574;2023-06-14T09:20:05;5.25;;;3.67;;
27428;SDS011;14881;48.092;11.574;2023-06-14T09:22:35;4.07;;;3.65;;
27428;SDS011;14881;48.092;11.574;2023-06-14T09:25:02;5.28;;;3.80;;
27428;SDS011;14881;48.092;11.574;2023-06-14T09:27:29;4.30;;;3.47;;
27428;SDS011;14881;48.092;11.574;2023-06-14T09:29:55;5.38;;;3.53;;
27428;SDS011;14881;48.092;11.574;2023-06-14T09:32:22;4.63;;;3.80;;
27428;SDS011;14881;48.092;11.574;2023-06-14T09:34:48;5.50;;;3.42;;
27428;SDS011;14881;48.092;11.574;2023-06-14T09:37:26;6.38;;;4.38;;
27428;SDS011;14881;48.092;11.574;2023-06-14T09:39:55;5.18;;;3.70;;
27428;SDS011;14881;48.092;11.574;2023-06-14T09:42:22;5.28;;;3.92;;
27428;SDS011;14881;48.092;11.574;2023-06-14T09:44:51;5.43;;;4.15;;
27428;SDS011;14881;48.092;11.574;2023-06-14T09:47:19;4.65;;;4.13;;
27428;SDS011;14881;48.092;11.574;2023-06-14T09:49:46;6.93;;;3.97;;
27428;SDS011;14881;48.092;11.574;2023-06-14T09:52:14;5.63;;;3.85;;
27428;SDS011;14881;48.092;11.574;2023-06-14T09:54:42;6.18;;;4.13;;
27428;SDS011;14881;48.092;11.574;2023-06-14T09:57:12;6.22;;;4.10;;
27428;SDS011;14881;48.092;11.574;2023-06-14T09:59:46;5.40;;;3.58;;
27428;SDS011;14881;48.092;11.574;2023-06-14T10:08:59;10.75;;;4.00;;
27428;SDS011;14881;48.092;11.574;2023-06-14T10:11:26;12.15;;;3.90;;
27428;SDS011;14881;48.092;11.574;2023-06-14T10:13:53;6.60;;;4.28;;
27428;SDS011;14881;48.092;11.574;2023-06-14T10:16:23;5.68;;;4.03;;
27428;SDS011;14881;48.092;11.574;2023-06-14T10:19:01;5.22;;;3.70;;
27428;SDS011;14881;48.092;11.574;2023-06-14T10:21:36;5.85;;;3.90;;
27428;SDS011;14881;48.092;11.574;2023-06-14T10:24:10;4.80;;;3.38;;
27428;SDS011;14881;48.092;11.574;2023-06-14T10:26:50;7.20;;;3.67;;
27428;SDS011;14881;48.092;11.574;2023-06-14T10:29:17;4.65;;;3.80;;
27428;SDS011;14881;48.092;11.574;2023-06-14T10:31:44;10.45;;;3.55;;
27428;SDS011;14881;48.092;11.574;2023-06-14T10:34:11;6.38;;;4.35;;
27428;SDS011;14881;48.092;11.574;2023-06-14T10:36:50;5.05;;;3.80;;
27428;SDS011;14881;48.092;11.574;2023-06-14T10:39:27;4.88;;;3.67;;
27428;SDS011;14881;48.092;11.574;2023-06-14T10:41:55;7.75;;;4.20;;
27428;SDS011;14881;48.092;11.574;2023-06-14T10:47:23;5.15;;;3.67;;
27428;SDS011;14881;48.092;11.574;2023-06-14T10:49:51;6.00;;;4.22;;
27428;SDS011;14881;48.092;11.574;2023-06-14T10:52:23;5.88;;;3.80;;
27428;SDS011;14881;48.092;11.574;2023-06-14T10:57:48;8.40;;;3.90;;
27428;SDS011;14881;48.092;11.574;2023-06-14T11:00:19;7.80;;;3.85;;
27428;SDS011;14881;48.092;11.574;2023-06-14T11:02:51;4.10;;;3.70;;
27428;SDS011;14881;48.092;11.574;2023-06-14T11:05:40;4.32;;;3.92;;
27428;SDS011;14881;48.092;11.574;2023-06-14T11:08:18;5.47;;;3.95;;
27428;SDS011;14881;48.092;11.574;2023-06-14T11:11:05;4.75;;;3.80;;
27428;SDS011;14881;48.092;11.574;2023-06-14T11:13:33;5.65;;;3.97;;
27428;SDS011;14881;48.092;11.574;2023-06-14T11:16:02;6.60;;;4.43;;
27428;SDS011;14881;48.092;11.574;2023-06-14T11:18:36;6.00;;;3.65;;
27428;SDS011;14881;48.092;11.574;2023-06-14T11:21:02;6.28;;;4.25;;
27428;SDS011;14881;48.092;11.574;2023-06-14T11:23:29;4.13;;;3.50;;
27428;SDS011;14881;48.092;11.574;2023-06-14T11:25:55;7.10;;;4.13;;
27428;SDS011;14881;48.092;11.574;2023-06-14T11:28:25;6.40;;;3.75;;
27428;SDS011;14881;48.092;11.574;2023-06-14T11:31:02;6.85;;;3.78;;
27428;SDS011;14881;48.092;11.574;2023-06-14T11:33:29;6.47;;;3.83;;
27428;SDS011;14881;48.092;11.574;2023-06-14T11:35:55;6.80;;;3.80;;
27428;SDS011;14881;48.092;11.574;2023-06-14T11:38:22;8.60;;;4.32;;
27428;SDS011;14881;48.092;11.574;2023-06-14T11:40:48;5.07;;;3.65;;
27428;SDS011;14881;48.092;11.574;2023-06-14T11:43:15;8.35;;;3.97;;
27428;SDS011;14881;48.092;11.574;2023-06-14T11:45:43;6.95;;;4.30;;
27428;SDS011;14881;48.092;11.574;2023-06-14T11:48:36;6.20;;;3.83;;
27428;SDS011;14881;48.092;11.574;2023-06-14T11:51:03;4.50;;;3.97;;
27428;SDS011;14881;48.092;11.574;2023-06-14T11:53:29;7.40;;;4.00;;
27428;SDS011;14881;48.092;11.574;2023-06-14T11:55:56;9.50;;;4.50;;
27428;SDS011;14881;48.092;11.574;2023-06-14T11:58:23;8.82;;;4.25;;
27428;SDS011;14881;48.092;11.574;2023-06-14T12:00:51;6.03;;;3.65;;
27428;SDS011;14881;48.092;11.574;2023-06-14T12:03:22;12.90;;;3.95;;
27428;SDS011;14881;48.092;11.574;2023-06-14T12:05:49;7.65;;;4.53;;
27428;SDS011;14881;48.092;11.574;2023-06-14T12:08:16;6.45;;;3.83;;
27428;SDS011;14881;48.092;11.574;2023-06-14T12:10:43;6.63;;;4.00;;
27428;SDS011;14881;48.092;11.574;2023-06-14T12:13:09;5.03;;;4.10;;
27428;SDS011;14881;48.092;11.574;2023-06-14T12:15:36;3.92;;;3.63;;
27428;SDS011;14881;48.092;11.574;2023-06-14T12:18:05;6.90;;;3.78;;
27428;SDS011;14881;48.092;11.574;2023-06-14T12:20:33;7.43;;;3.90;;
27428;SDS011;14881;48.092;11.574;2023-06-14T12:23:02;7.47;;;3.97;;
27428;SDS011;14881;48.092;11.574;2023-06-14T12:25:30;4.70;;;3.80;;
27428;SDS011;14881;48.092;11.574;2023-06-14T12:28:03;5.82;;;3.13;;
27428;SDS011;14881;48.092;11.574;2023-06-14T12:30:30;6.53;;;4.20;;
27428;SDS011;14881;48.092;11.574;2023-06-14T12:32:57;6.70;;;3.72;;
27428;SDS011;14881;48.092;11.574;2023-06-14T12:35:24;5.60;;;3.45;;
27428;SDS011;14881;48.092;11.574;2023-06-14T12:37:51;5.72;;;3.55;;
27428;SDS011;14881;48.092;11.574;2023-06-14T12:40:20;6.32;;;3.63;;
27428;SDS011;14881;48.092;11.574;2023-06-14T12:42:47;10.50;;;3.85;;
27428;SDS011;14881;48.092;11.574;2023-06-14T12:45:13;5.63;;;4.15;;
27428;SDS011;14881;48.092;11.574;2023-06-14T12:47:41;6.22;;;4.15;;
27428;SDS011;14881;48.092;11.574;2023-06-14T12:50:08;5.43;;;3.83;;
27428;SDS011;14881;48.092;11.574;2023-06-14T12:52:38;6.07;;;3.97;;
27428;SDS011;14881;48.092;11.574;2023-06-14T12:55:05;4.00;;;3.53;;
27428;SDS011;14881;48.092;11.574;2023-06-14T12:57:32;5.80;;;3.78;;
27428;SDS011;14881;48.092;11.574;2023-06-14T12:59:59;6.57;;;4.07;;
27428;SDS011;14881;48.092;11.574;2023-06-14T13:02:26;5.38;;;4.07;;
27428;SDS011;14881;48.092;11.574;2023-06-14T13:04:52;5.53;;;3.65;;
27428;SDS011;14881;48.092;11.574;2023-06-14T13:07:19;8.15;;;4.07;;
27428;SDS011;14881;48.092;11.574;2023-06-14T13:09:46;5.40;;;4.20;;
27428;SDS011;14881;48.092;11.574;2023-06-14T13:12:12;4.63;;;4.07;;
27428;SDS011;14881;48.092;11.574;2023-06-14T13:14:39;6.25;;;3.95;;
27428;SDS011;14881;48.092;11.574;2023-06-14T13:17:07;6.68;;;3.90;;
27428;SDS011;14881;48.092;11.574;2023-06-14T13:19:34;6.65;;;4.05;;
27428;SDS011;14881;48.092;11.574;2023-06-14T13:22:00;6.03;;;4.00;;
27428;SDS011;14881;48.092;11.574;2023-06-14T13:24:28;5.55;;;4.28;;
27428;SDS011;14881;48.092;11.574;2023-06-14T13:26:56;6.32;;;3.80;;
27428;SDS011;14881;48.092;11.574;2023-06-14T13:29:23;6.78;;;4.00;;
27428;SDS011;14881;48.092;11.574;2023-06-14T13:31:50;8.15;;;3.97;;
27428;SDS011;14881;48.092;11.574;2023-06-14T13:34:16;5.75;;;3.95;;
27428;SDS011;14881;48.092;11.574;2023-06-14T13:36:43;4.55;;;3.80;;
27428;SDS011;14881;48.092;11.574;2023-06-14T13:39:09;6.70;;;4.50;;
27428;SDS011;14881;48.092;11.574;2023-06-14T13:41:36;6.03;;;4.05;;
27428;SDS011;14881;48.092;11.574;2023-06-14T13:44:04;6.20;;;3.75;;
27428;SDS011;14881;48.092;11.574;2023-06-14T13:46:30;7.50;;;4.32;;
27428;SDS011;14881;48.092;11.574;2023-06-14T13:48:57;7.28;;;4.50;;
27428;SDS011;14881;48.092;11.574;2023-06-14T13:51:24;5.50;;;3.90;;
27428;SDS011;14881;48.092;11.574;2023-06-14T13:53:52;6.13;;;4.30;;
27428;SDS011;14881;48.092;11.574;2023-06-14T13:56:20;6.32;;;3.95;;
27428;SDS011;14881;48.092;11.574;2023-06-14T13:58:48;5.03;;;3.80;;
27428;SDS011;14881;48.092;11.574;2023-06-14T14:01:15;7.55;;;3.75;;
27428;SDS011;14881;48.092;11.574;2023-06-14T14:03:43;5.97;;;4.45;;
27428;SDS011;14881;48.092;11.574;2023-06-14T14:06:10;6.32;;;4.53;;
27428;SDS011;14881;48.092;11.574;2023-06-14T14:08:37;6.63;;;4.30;;
27428;SDS011;14881;48.092;11.574;2023-06-14T14:11:06;4.68;;;3.85;;
27428;SDS011;14881;48.092;11.574;2023-06-14T14:13:33;4.20;;;3.70;;
27428;SDS011;14881;48.092;11.574;2023-06-14T14:16:01;4.82;;;3.92;;
27428;SDS011;14881;48.092;11.574;2023-06-14T14:18:29;4.30;;;3.88;;
27428;SDS011;14881;48.092;11.574;2023-06-14T14:20:57;4.63;;;3.65;;
27428;SDS011;14881;48.092;11.574;2023-06-14T14:23:24;4.75;;;3.95;;
27428;SDS011;14881;48.092;11.574;2023-06-14T14:25:50;7.18;;;3.88;;
27428;SDS011;14881;48.092;11.574;2023-06-14T14:28:17;9.88;;;4.10;;
27428;SDS011;14881;48.092;11.574;2023-06-14T14:30:45;8.93;;;4.32;;
27428;SDS011;14881;48.092;11.574;2023-06-14T14:33:12;7.05;;;4.00;;
27428;SDS011;14881;48.092;11.574;2023-06-14T14:35:42;6.40;;;4.25;;
27428;SDS011;14881;48.092;11.574;2023-06-14T14:38:08;8.52;;;3.80;;
27428;SDS011;14881;48.092;11.574;2023-06-14T14:40:35;7.03;;;4.57;;
27428;SDS011;14881;48.092;11.574;2023-06-14T14:43:01;9.60;;;3.92;;
27428;SDS011;14881;48.092;11.574;2023-06-14T14:45:28;4.97;;;4.28;;
27428;SDS011;14881;48.092;11.574;2023-06-14T14:47:54;5.97;;;3.70;;
27428;SDS011;14881;48.092;11.574;2023-06-14T14:50:21;5.63;;;3.90;;